Time;durP1;ratioP1;P1;durP2;ratioP2;P2;SDS_P1;SDS_P2;PMS_P1;PMS_P2;Temp;Humidity;BMP_temperature;BMP_pressure;BME280_temperature;BME280_humidity;BME280_pressure;Samples;Min_cycle;Max_cycle;Signal;HPM_P1;HPM_P2
2021/09/26 00:00:38;;;;;;;1.83;1.40;;;16.20;86.30;;;;;;5113650;28;20020;-79
2021/09/26 00:03:04;;;;;;;2.13;1.67;;;16.20;86.30;;;;;;5113824;28;20050;-79
2021/09/26 00:05:29;;;;;;;2.97;1.70;;;16.20;86.40;;;;;;5113421;28;20103;-78
2021/09/26 00:07:55;;;;;;;1.88;1.65;;;16.20;86.40;;;;;;5094589;28;20551;-78
2021/09/26 00:10:21;;;;;;;1.63;1.42;;;16.10;86.40;;;;;;5113694;28;20453;-78
2021/09/26 00:12:46;;;;;;;2.15;1.95;;;16.10;86.40;;;;;;5113288;28;20106;-79
2021/09/26 00:15:16;;;;;;;1.50;1.40;;;16.10;86.40;;;;;;5113546;28;20457;-78
2021/09/26 00:17:41;;;;;;;;;;;16.10;86.40;;;;;;5113837;28;20065;-78
2021/09/26 00:20:08;;;;;;;1.67;1.25;;;16.00;86.90;;;;;;5113439;28;19903;-79
2021/09/26 00:22:33;;;;;;;1.88;1.42;;;16.00;86.50;;;;;;5113029;28;20522;-79
2021/09/26 00:24:59;;;;;;;1.40;1.30;;;16.00;86.50;;;;;;5113283;28;20019;-79
2021/09/26 00:27:24;;;;;;;1.65;1.30;;;16.00;86.60;;;;;;5113133;28;20036;-78
2021/09/26 00:29:50;;;;;;;3.40;1.95;;;16.00;86.60;;;;;;5113236;28;20020;-78
2021/09/26 00:32:15;;;;;;;1.70;1.23;;;16.00;86.50;;;;;;5113501;28;20077;-78
2021/09/26 00:34:41;;;;;;;2.58;1.60;;;16.00;86.50;;;;;;5113082;28;20031;-78
2021/09/26 00:37:07;;;;;;;1.88;1.27;;;16.00;86.50;;;;;;5112872;28;20039;-78
2021/09/26 00:39:33;;;;;;;1.88;1.48;;;15.90;86.50;;;;;;5113150;28;20587;-79
2021/09/26 00:41:59;;;;;;;1.90;1.60;;;15.90;86.60;;;;;;5113182;28;20020;-79
2021/09/26 00:44:24;;;;;;;1.48;1.17;;;15.90;86.60;;;;;;5113332;28;20027;-79
2021/09/26 00:46:51;;;;;;;3.05;1.60;;;15.90;86.60;;;;;;5113342;28;20484;-79
2021/09/26 00:49:17;;;;;;;1.98;1.30;;;15.90;86.50;;;;;;5113273;28;20032;-77
2021/09/26 00:51:44;;;;;;;1.95;1.33;;;15.90;86.60;;;;;;5112508;28;20076;-77
2021/09/26 00:54:11;;;;;;;2.38;1.95;;;15.90;86.60;;;;;;5113102;28;20544;-77
2021/09/26 00:56:36;;;;;;;1.25;1.15;;;15.80;86.60;;;;;;5115373;28;20380;-77
2021/09/26 00:59:02;;;;;;;1.90;1.45;;;15.80;86.60;;;;;;5116949;28;20468;-77
2021/09/26 01:01:27;;;;;;;2.85;1.63;;;15.80;86.60;;;;;;5116980;28;20026;-77
2021/09/26 01:03:54;;;;;;;2.03;1.52;;;15.80;86.70;;;;;;5116852;28;20076;-77
2021/09/26 01:06:46;;;;;;;1.77;1.38;;;15.70;86.70;;;;;;5098229;28;20024;-77
2021/09/26 01:09:33;;;;;;;2.38;1.58;;;15.80;86.60;;;;;;5116632;28;20044;-77
2021/09/26 01:12:13;;;;;;;3.25;1.63;;;15.70;86.60;;;;;;5116896;28;20034;-77
2021/09/26 01:14:41;;;;;;;2.35;1.40;;;15.70;86.70;;;;;;5116760;28;20115;-77
2021/09/26 01:17:15;;;;;;;1.63;1.10;;;15.70;86.80;;;;;;5116555;28;20149;-77
2021/09/26 01:20:02;;;;;;;2.53;1.80;;;15.60;86.80;;;;;;5116273;28;20503;-77
2021/09/26 01:22:50;;;;;;;2.28;1.42;;;15.60;86.70;;;;;;5116667;28;20027;-78
2021/09/26 01:25:38;;;;;;;1.40;1.30;;;15.60;86.80;;;;;;5116376;28;20030;-78
2021/09/26 01:28:34;;;;;;;1.67;1.35;;;15.60;86.80;;;;;;5116739;28;20380;-77
2021/09/26 01:31:11;;;;;;;1.67;1.50;;;15.60;86.90;;;;;;5116448;28;20062;-77
2021/09/26 01:33:47;;;;;;;1.88;1.48;;;15.50;87.00;;;;;;5116434;28;20036;-78
2021/09/26 01:36:27;;;;;;;2.25;1.42;;;15.50;87.00;;;;;;5115955;28;20023;-78
2021/09/26 01:39:01;;;;;;;1.63;1.40;;;15.50;87.00;;;;;;5116369;28;20099;-78
2021/09/26 01:41:38;;;;;;;2.08;1.88;;;15.50;87.10;;;;;;5116331;28;20024;-77
2021/09/26 01:44:11;;;;;;;2.45;1.50;;;15.50;87.00;;;;;;5097896;28;20027;-77
2021/09/26 01:46:41;;;;;;;1.85;1.23;;;15.40;87.10;;;;;;5116159;28;20020;-77
2021/09/26 01:49:13;;;;;;;1.52;1.40;;;15.50;87.20;;;;;;5115571;28;20050;-78
2021/09/26 01:51:43;;;;;;;2.35;1.50;;;15.50;87.20;;;;;;5116217;28;20095;-78
2021/09/26 01:54:11;;;;;;;1.85;1.58;;;15.40;87.20;;;;;;5115961;28;20053;-78
2021/09/26 01:56:40;;;;;;;2.63;1.83;;;15.40;87.20;;;;;;5115982;28;20028;-78
2021/09/26 01:59:06;;;;;;;1.73;1.25;;;15.40;87.20;;;;;;5115698;28;20052;-78
2021/09/26 02:01:33;;;;;;;2.83;1.95;;;15.40;87.20;;;;;;5115775;28;20051;-77
2021/09/26 02:03:59;;;;;;;2.40;1.65;;;15.40;87.20;;;;;;5115544;28;20027;-77
2021/09/26 02:06:25;;;;;;;2.38;1.60;;;15.40;87.30;;;;;;5115975;28;20106;-77
2021/09/26 02:08:52;;;;;;;2.67;1.55;;;15.30;87.20;;;;;;5115514;28;20089;-78
2021/09/26 02:11:18;;;;;;;1.48;1.38;;;15.40;87.40;;;;;;5115588;28;20136;-77
2021/09/26 02:13:46;;;;;;;3.90;2.08;;;15.30;87.40;;;;;;5115474;28;20036;-78
2021/09/26 02:16:13;;;;;;;2.38;1.90;;;15.40;87.40;;;;;;5115593;28;20027;-78
2021/09/26 02:18:40;;;;;;;2.20;2.00;;;15.40;87.30;;;;;;5096819;28;20055;-78
2021/09/26 02:21:06;;;;;;;3.60;2.42;;;15.40;87.30;;;;;;5115619;28;20027;-78
2021/09/26 02:23:34;;;;;;;2.92;1.92;;;15.30;87.30;;;;;;5115319;28;20372;-78
2021/09/26 02:26:00;;;;;;;2.58;1.60;;;15.40;87.40;;;;;;5115126;28;20024;-78
2021/09/26 02:28:26;;;;;;;1.48;1.35;;;15.40;87.40;;;;;;5115324;28;20027;-78
2021/09/26 02:30:52;;;;;;;2.65;1.67;;;15.30;87.30;;;;;;5115234;28;20094;-77
2021/09/26 02:33:17;;;;;;;2.45;1.58;;;15.30;87.30;;;;;;5114830;28;20039;-78
2021/09/26 02:35:43;;;;;;;2.72;2.03;;;15.30;87.30;;;;;;5115343;28;20117;-78
2021/09/26 02:38:09;;;;;;;2.40;1.88;;;15.30;87.50;;;;;;5115070;28;20476;-77
2021/09/26 02:40:35;;;;;;;1.98;1.70;;;15.30;87.50;;;;;;5096743;28;20023;-78
2021/09/26 02:43:23;;;;;;;1.13;1.13;;;15.30;87.50;;;;;;5114995;28;20051;-78
2021/09/26 02:45:55;;;;;;;3.10;1.83;;;15.30;87.40;;;;;;5114966;28;20119;-78
2021/09/26 02:48:29;;;;;;;3.03;1.88;;;15.30;87.50;;;;;;5114332;28;20088;-78
2021/09/26 02:50:56;;;;;;;1.83;1.50;;;15.30;87.40;;;;;;5114685;28;20038;-78
2021/09/26 02:53:23;;;;;;;2.25;1.90;;;15.30;88.00;;;;;;5114829;28;20507;-78
2021/09/26 02:55:51;;;;;;;3.45;1.88;;;15.30;87.40;;;;;;5114766;28;20467;-77
2021/09/26 02:58:16;;;;;;;2.35;1.50;;;15.20;87.50;;;;;;5114686;28;20024;-77
2021/09/26 03:00:44;;;;;;;2.08;1.27;;;15.20;87.60;;;;;;5114658;28;20027;-78
2021/09/26 03:03:11;;;;;;;2.00;1.80;;;15.20;87.60;;;;;;5114051;28;20457;-78
2021/09/26 03:05:38;;;;;;;1.73;1.50;;;15.20;87.50;;;;;;5114444;28;20385;-77
2021/09/26 03:08:04;;;;;;;2.22;1.60;;;15.20;87.50;;;;;;5114275;28;20047;-78
2021/09/26 03:10:30;;;;;;;2.92;1.65;;;15.20;87.50;;;;;;5114487;28;20503;-77
2021/09/26 03:12:56;;;;;;;2.15;1.52;;;15.20;87.50;;;;;;5114277;28;20023;-78
2021/09/26 03:15:22;;;;;;;2.60;1.52;;;15.20;87.50;;;;;;5114411;28;20027;-77
2021/09/26 03:17:47;;;;;;;2.65;1.92;;;15.20;87.50;;;;;;5114335;28;20020;-77
2021/09/26 03:20:13;;;;;;;2.03;1.83;;;15.20;87.50;;;;;;5113890;28;20377;-78
2021/09/26 03:22:38;;;;;;;2.50;1.60;;;15.20;87.50;;;;;;5114327;28;20419;-78
2021/09/26 03:25:04;;;;;;;2.05;1.85;;;15.20;87.50;;;;;;5114299;28;20488;-78
2021/09/26 03:27:30;;;;;;;1.75;1.30;;;15.20;87.60;;;;;;5114116;28;20480;-78
2021/09/26 03:29:55;;;;;;;1.30;1.20;;;15.20;87.50;;;;;;5113733;28;20094;-77
2021/09/26 03:32:21;;;;;;;2.55;1.75;;;15.20;87.40;;;;;;5114138;28;20027;-78
2021/09/26 03:34:46;;;;;;;1.52;1.23;;;15.20;87.40;;;;;;5114024;28;20067;-78
2021/09/26 03:37:12;;;;;;;2.00;1.80;;;15.20;87.40;;;;;;5113996;28;20024;-77
2021/09/26 03:39:38;;;;;;;2.88;1.80;;;15.30;87.40;;;;;;5113930;28;20028;-78
2021/09/26 03:42:04;;;;;;;2.17;1.63;;;15.20;87.40;;;;;;5113984;28;20024;-78
2021/09/26 03:44:29;;;;;;;2.03;1.40;;;15.20;87.60;;;;;;5113544;28;20049;-78
2021/09/26 03:46:55;;;;;;;1.98;1.45;;;15.20;87.70;;;;;;5113950;28;20015;-78
2021/09/26 03:49:21;;;;;;;2.70;1.80;;;15.20;87.60;;;;;;5113825;28;20020;-77
2021/09/26 03:51:50;;;;;;;2.63;1.77;;;15.30;87.60;;;;;;5113828;28;20023;-77
2021/09/26 03:54:17;;;;;;;2.15;1.45;;;15.30;87.70;;;;;;5113640;28;20054;-78
2021/09/26 03:56:43;;;;;;;2.17;1.60;;;15.20;87.70;;;;;;5113783;28;20016;-78
2021/09/26 03:59:10;;;;;;;1.40;1.25;;;15.20;87.80;;;;;;5113314;28;20023;-78
2021/09/26 04:01:36;;;;;;;1.27;1.15;;;15.20;87.70;;;;;;5113609;28;20093;-78
2021/09/26 04:04:02;;;;;;;1.30;1.20;;;15.30;87.70;;;;;;5113697;28;20023;-78
2021/09/26 04:06:28;;;;;;;2.20;1.80;;;15.30;87.60;;;;;;5113687;28;20024;-78
2021/09/26 04:08:53;;;;;;;2.33;2.03;;;15.30;87.50;;;;;;5113436;28;20127;-78
2021/09/26 04:11:20;;;;;;;1.55;1.25;;;15.40;87.40;;;;;;5113786;28;20069;-77
2021/09/26 04:13:46;;;;;;;1.85;1.60;;;15.40;88.00;;;;;;5113074;28;20031;-78
2021/09/26 04:16:11;;;;;;;2.67;1.60;;;15.40;87.30;;;;;;5113620;28;20147;-77
2021/09/26 04:18:37;;;;;;;2.38;1.50;;;15.40;87.30;;;;;;5113605;28;20056;-77
2021/09/26 04:21:02;;;;;;;1.90;1.42;;;15.40;87.30;;;;;;5113618;28;20016;-77
2021/09/26 04:23:28;;;;;;;1.50;1.27;;;15.40;87.20;;;;;;5113529;28;20481;-77
2021/09/26 04:25:53;;;;;;;1.38;1.27;;;15.40;87.20;;;;;;5113557;28;20028;-77
2021/09/26 04:28:19;;;;;;;1.75;1.42;;;15.40;87.30;;;;;;5112926;28;20494;-77
2021/09/26 04:30:44;;;;;;;2.95;1.85;;;15.40;87.40;;;;;;5114675;28;20107;-77
2021/09/26 04:33:10;;;;;;;1.50;1.10;;;15.40;87.40;;;;;;5117464;28;20031;-77
2021/09/26 04:35:35;;;;;;;1.67;1.27;;;15.50;87.40;;;;;;5117484;28;20477;-77
2021/09/26 04:38:01;;;;;;;2.25;1.60;;;15.40;87.30;;;;;;5117355;28;20111;-77
2021/09/26 04:40:26;;;;;;;1.92;1.70;;;15.40;87.40;;;;;;5117309;28;20027;-77
2021/09/26 04:42:52;;;;;;;2.08;1.50;;;15.40;87.40;;;;;;5117014;28;20023;-77
2021/09/26 04:45:18;;;;;;;1.60;1.50;;;15.40;87.40;;;;;;5099033;28;20020;-77
2021/09/26 04:47:43;;;;;;;1.85;1.50;;;15.50;87.50;;;;;;5117271;28;20031;-78
2021/09/26 04:50:11;;;;;;;2.40;1.75;;;15.40;87.40;;;;;;5132922;27;20012;-77
2021/09/26 04:52:37;;;;;;;1.50;1.30;;;15.50;87.40;;;;;;5117085;28;20077;-77
2021/09/26 04:55:03;;;;;;;2.00;1.60;;;15.50;87.40;;;;;;5098833;28;20036;-77
2021/09/26 04:57:29;;;;;;;1.90;1.23;;;15.50;87.40;;;;;;5116580;28;20027;-77
2021/09/26 04:59:54;;;;;;;1.75;1.20;;;15.50;87.30;;;;;;5117003;28;20026;-77
2021/09/26 05:02:20;;;;;;;1.83;1.25;;;15.50;87.90;;;;;;5116941;28;20069;-77
2021/09/26 05:04:45;;;;;;;2.25;1.45;;;15.50;87.20;;;;;;5117067;28;20388;-77
2021/09/26 05:07:11;;;;;;;1.83;1.60;;;15.60;87.30;;;;;;5116996;28;20023;-77
2021/09/26 05:09:37;;;;;;;1.27;1.05;;;15.60;87.30;;;;;;5116778;28;20127;-77
2021/09/26 05:12:02;;;;;;;2.40;1.92;;;15.60;87.30;;;;;;5116440;28;20460;-78
2021/09/26 05:14:28;;;;;;;1.55;1.45;;;15.60;87.30;;;;;;5116573;28;20031;-77
2021/09/26 05:16:53;;;;;;;1.77;1.35;;;15.70;87.30;;;;;;5116754;28;20052;-77
2021/09/26 05:19:19;;;;;;;1.88;1.30;;;15.70;87.30;;;;;;5116663;28;20560;-77
2021/09/26 05:21:45;;;;;;;1.65;1.40;;;15.70;87.30;;;;;;5116593;28;20020;-78
2021/09/26 05:24:10;;;;;;;1.80;1.45;;;15.70;87.20;;;;;;5116453;28;20024;-79
2021/09/26 05:26:37;;;;;;;2.00;1.40;;;15.80;87.20;;;;;;5116070;28;20488;-78
2021/09/26 05:29:06;;;;;;;2.35;1.42;;;15.80;87.10;;;;;;5116365;28;20034;-79
2021/09/26 05:31:32;;;;;;;1.95;1.45;;;15.90;87.10;;;;;;5116560;28;20489;-78
2021/09/26 05:33:58;;;;;;;1.83;1.33;;;15.90;87.00;;;;;;5116510;28;20031;-78
2021/09/26 05:36:23;;;;;;;1.98;1.50;;;15.90;87.00;;;;;;5116199;28;20099;-78
2021/09/26 05:38:49;;;;;;;1.67;1.30;;;16.00;87.00;;;;;;5116341;28;20023;-78
2021/09/26 05:41:14;;;;;;;1.30;1.00;;;16.00;87.00;;;;;;5115375;28;20102;-79
2021/09/26 05:43:40;;;;;;;2.15;1.40;;;16.00;86.90;;;;;;5116416;28;20023;-78
2021/09/26 05:46:05;;;;;;;1.50;1.02;;;16.00;87.00;;;;;;5116053;28;20016;-79
2021/09/26 05:48:31;;;;;;;1.85;1.38;;;16.10;87.00;;;;;;5116042;28;20035;-79
2021/09/26 05:50:56;;;;;;;1.70;1.30;;;16.10;87.00;;;;;;5115992;28;20388;-78
2021/09/26 05:53:22;;;;;;;1.85;1.60;;;16.10;86.90;;;;;;5115948;28;20035;-76
2021/09/26 05:55:48;;;;;;;2.67;1.80;;;16.10;86.90;;;;;;5115428;28;20380;-76
2021/09/26 05:58:14;;;;;;;1.88;1.52;;;16.00;87.10;;;;;;5115897;28;20056;-75
2021/09/26 06:00:39;;;;;;;1.45;1.35;;;15.90;87.50;;;;;;5115855;28;20078;-76
2021/09/26 06:03:05;;;;;;;2.55;1.75;;;15.80;88.00;;;;;;5097457;28;20414;-75
2021/09/26 06:05:30;;;;;;;2.50;1.60;;;15.70;88.40;;;;;;5097477;28;20012;-76
2021/09/26 06:07:56;;;;;;;1.95;1.52;;;15.70;88.50;;;;;;5115560;28;20232;-76
2021/09/26 06:10:22;;;;;;;1.27;1.13;;;15.70;88.70;;;;;;5115174;28;20039;-75
2021/09/26 06:12:47;;;;;;;1.70;1.05;;;15.70;88.70;;;;;;5131430;27;20063;-75
2021/09/26 06:15:13;;;;;;;1.95;1.35;;;15.70;88.70;;;;;;5115510;28;20032;-76
2021/09/26 06:17:39;;;;;;;1.70;1.38;;;15.70;88.60;;;;;;5115679;28;20504;-76
2021/09/26 06:20:05;;;;;;;1.25;1.08;;;15.80;88.60;;;;;;5115761;28;20023;-75
2021/09/26 06:22:31;;;;;;;1.25;1.15;;;15.80;88.60;;;;;;5115433;28;20028;-75
2021/09/26 06:24:58;;;;;;;1.77;1.60;;;15.90;88.70;;;;;;5114919;28;20031;-75
2021/09/26 06:27:24;;;;;;;1.30;1.17;;;15.90;88.70;;;;;;5115375;28;20059;-75
2021/09/26 06:29:50;;;;;;;3.08;1.92;;;15.90;88.60;;;;;;5115254;28;20067;-74
2021/09/26 06:32:15;;;;;;;2.25;1.77;;;15.90;88.60;;;;;;5115259;28;20043;-79
2021/09/26 06:34:41;;;;;;;1.52;1.30;;;16.00;88.70;;;;;;5114986;28;20046;-74
2021/09/26 06:37:07;;;;;;;1.65;1.30;;;16.00;88.80;;;;;;5115224;28;20016;-74
2021/09/26 06:39:34;;;;;;;1.70;1.60;;;16.00;88.80;;;;;;5114583;28;20028;-75
2021/09/26 06:41:59;;;;;;;2.00;1.38;;;16.00;89.40;;;;;;5115102;28;20536;-75
2021/09/26 06:44:25;;;;;;;2.05;1.40;;;16.10;88.90;;;;;;5114825;28;20023;-76
2021/09/26 06:46:51;;;;;;;1.30;1.20;;;16.10;88.90;;;;;;5114982;28;20477;-76
2021/09/26 06:49:16;;;;;;;1.60;1.48;;;16.10;88.90;;;;;;5114872;28;20027;-77
2021/09/26 06:51:42;;;;;;;2.50;1.52;;;16.10;89.00;;;;;;5114696;28;20027;-76
2021/09/26 06:54:07;;;;;;;2.58;1.60;;;16.00;89.20;;;;;;5113435;28;20031;-76
2021/09/26 06:56:33;;;;;;;1.85;1.20;;;16.10;89.40;;;;;;5096458;28;20024;-77
2021/09/26 06:58:58;;;;;;;1.50;1.40;;;16.10;89.20;;;;;;5114745;28;20024;-76
2021/09/26 07:01:24;;;;;;;1.75;1.27;;;16.20;89.20;;;;;;5096300;28;20534;-76
2021/09/26 07:03:49;;;;;;;1.80;1.20;;;16.20;89.10;;;;;;5114595;28;20031;-77
2021/09/26 07:06:15;;;;;;;2.35;1.38;;;16.30;89.20;;;;;;5114363;28;20095;-76
2021/09/26 07:08:41;;;;;;;1.05;0.95;;;16.30;89.20;;;;;;5114000;28;20047;-76
2021/09/26 07:11:06;;;;;;;1.77;1.50;;;16.40;89.20;;;;;;5114599;28;20020;-76
2021/09/26 07:13:32;;;;;;;2.03;1.60;;;16.50;89.10;;;;;;5096065;28;20024;-76
2021/09/26 07:15:57;;;;;;;2.28;1.83;;;16.50;89.00;;;;;;5114510;28;20031;-76
2021/09/26 07:18:23;;;;;;;1.48;1.17;;;16.60;88.90;;;;;;5096373;28;20043;-76
2021/09/26 07:20:48;;;;;;;1.55;1.25;;;16.70;88.80;;;;;;5114326;28;20027;-76
2021/09/26 07:23:14;;;;;;;1.33;1.23;;;16.80;88.90;;;;;;5113868;28;20027;-76
2021/09/26 07:25:40;;;;;;;1.48;1.27;;;16.80;88.70;;;;;;5114221;28;20461;-76
2021/09/26 07:28:06;;;;;;;2.13;1.40;;;16.90;88.70;;;;;;5095872;28;20023;-75
2021/09/26 07:30:32;;;;;;;2.10;1.58;;;17.00;88.80;;;;;;5114036;28;20129;-75
2021/09/26 07:32:57;;;;;;;1.98;1.40;;;17.00;88.70;;;;;;5114183;28;20020;-75
2021/09/26 07:35:23;;;;;;;2.28;1.70;;;17.10;88.70;;;;;;5114089;28;20406;-75
2021/09/26 07:37:49;;;;;;;1.65;1.30;;;17.10;88.70;;;;;;5113434;28;20031;-75
2021/09/26 07:40:15;;;;;;;1.65;1.20;;;17.10;88.80;;;;;;5114081;28;20026;-74
2021/09/26 07:42:40;;;;;;;1.83;1.67;;;17.20;88.90;;;;;;5113888;28;20106;-75
2021/09/26 07:45:09;;;;;;;1.63;1.45;;;17.20;89.00;;;;;;5113911;28;20042;-75
2021/09/26 07:47:36;;;;;;;2.22;1.60;;;17.20;89.00;;;;;;5113971;28;20038;-75
2021/09/26 07:50:03;;;;;;;1.95;1.63;;;17.30;89.00;;;;;;5113833;28;20102;-76
2021/09/26 07:52:28;;;;;;;3.55;2.40;;;17.30;88.90;;;;;;5113456;28;20476;-74
2021/09/26 07:54:56;;;;;;;1.88;1.50;;;17.40;89.00;;;;;;5095529;28;20074;-77
2021/09/26 07:57:22;;;;;;;1.83;1.55;;;17.40;88.90;;;;;;5113696;28;20061;-77
2021/09/26 07:59:48;;;;;;;3.10;1.90;;;17.50;88.90;;;;;;5113599;28;20396;-77
2021/09/26 08:02:14;;;;;;;1.75;1.40;;;17.50;88.90;;;;;;5113666;28;20024;-77
2021/09/26 08:04:40;;;;;;;2.38;1.85;;;17.60;88.90;;;;;;5113496;28;20028;-78
2021/09/26 08:07:05;;;;;;;2.55;1.70;;;17.70;88.80;;;;;;5113288;28;20026;-78
2021/09/26 08:09:31;;;;;;;2.15;1.65;;;17.70;88.70;;;;;;5113500;28;20051;-78
2021/09/26 08:11:57;;;;;;;1.77;1.55;;;17.80;88.60;;;;;;5113463;28;20023;-78
2021/09/26 08:14:22;;;;;;;2.30;1.77;;;17.80;88.70;;;;;;5113495;28;20054;-78
2021/09/26 08:16:48;;;;;;;2.58;1.95;;;17.90;88.70;;;;;;5113588;28;20380;-78
2021/09/26 08:19:14;;;;;;;2.20;1.80;;;18.00;88.60;;;;;;5113481;28;20023;-79
2021/09/26 08:21:39;;;;;;;1.75;1.52;;;18.10;88.50;;;;;;5113097;28;20024;-78
2021/09/26 08:24:08;;;;;;;2.60;2.10;;;18.20;88.50;;;;;;5113512;28;20106;-78
2021/09/26 08:26:36;;;;;;;2.53;2.10;;;18.30;88.50;;;;;;5113433;28;20089;-79
2021/09/26 08:29:02;;;;;;;2.28;2.03;;;18.30;88.50;;;;;;5113507;28;20032;-77
2021/09/26 08:31:28;;;;;;;3.00;1.30;;;18.30;88.60;;;;;;5113538;28;20036;-77
2021/09/26 08:33:53;;;;;;;2.22;1.70;;;18.30;88.80;;;;;;5113425;28;20078;-78
2021/09/26 08:36:19;;;;;;;2.08;1.70;;;18.30;88.90;;;;;;5113057;28;20024;-77
2021/09/26 08:38:44;;;;;;;2.53;1.65;;;18.40;89.00;;;;;;5113320;28;20062;-78
2021/09/26 08:41:10;;;;;;;1.83;1.55;;;18.40;89.00;;;;;;5113293;28;20023;-77
2021/09/26 08:43:36;;;;;;;1.50;1.38;;;18.40;89.10;;;;;;5129100;28;20043;-78
2021/09/26 08:46:03;;;;;;;2.38;1.50;;;18.40;89.10;;;;;;5113415;28;20148;-78
2021/09/26 08:48:29;;;;;;;2.00;1.60;;;18.40;89.00;;;;;;5113289;28;20473;-78
2021/09/26 08:50:55;;;;;;;1.63;1.33;;;18.40;89.10;;;;;;5112750;28;20020;-78
2021/09/26 08:53:25;;;;;;;2.42;1.73;;;18.50;89.10;;;;;;5113204;28;20393;-78
2021/09/26 08:55:54;;;;;;;1.85;1.48;;;18.50;89.10;;;;;;5113213;28;20020;-78
2021/09/26 08:58:20;;;;;;;;;;;18.60;89.10;;;;;;5113696;28;20026;-78
2021/09/26 09:00:46;;;;;;;1.30;1.20;;;18.60;88.90;;;;;;5113158;28;19911;-78
2021/09/26 09:03:13;;;;;;;1.50;1.40;;;18.70;89.20;;;;;;5113091;28;20024;-78
2021/09/26 09:05:40;;;;;;;2.20;1.88;;;18.80;89.10;;;;;;5112736;28;20468;-78
2021/09/26 09:08:08;;;;;;;2.20;1.70;;;18.80;89.00;;;;;;5112832;28;20131;-78
2021/09/26 09:10:39;;;;;;;2.53;1.87;;;19.00;88.90;;;;;;5113103;28;20024;-78
2021/09/26 09:13:06;;;;;;;2.33;1.83;;;19.00;88.80;;;;;;5112984;28;20023;-79
2021/09/26 09:15:32;;;;;;;1.30;1.20;;;19.10;88.90;;;;;;5094841;28;20046;-79
2021/09/26 09:18:03;;;;;;;1.70;1.52;;;19.20;88.90;;;;;;5115496;28;20476;-78
2021/09/26 09:20:31;;;;;;;1.70;1.58;;;19.30;88.90;;;;;;5116613;28;20031;-79
2021/09/26 09:23:21;;;;;;;3.17;2.20;;;19.30;88.90;;;;;;5098244;28;20019;-79
2021/09/26 09:25:48;;;;;;;1.90;1.70;;;19.40;88.90;;;;;;5116593;28;20032;-78
2021/09/26 09:28:20;;;;;;;3.17;2.20;;;19.40;89.10;;;;;;5116558;28;20027;-78
2021/09/26 09:30:49;;;;;;;2.55;2.08;;;19.40;89.10;;;;;;5116477;28;20076;-78
2021/09/26 09:33:16;;;;;;;1.93;1.60;;;19.50;89.20;;;;;;5115884;28;20023;-78
2021/09/26 09:35:45;;;;;;;2.47;2.03;;;19.50;89.10;;;;;;5116299;28;20031;-79
2021/09/26 09:38:11;;;;;;;3.35;2.58;;;19.60;89.00;;;;;;5098071;28;20012;-78
2021/09/26 09:40:38;;;;;;;2.75;1.92;;;19.70;88.90;;;;;;5116293;28;20027;-78
2021/09/26 09:43:04;;;;;;;3.72;2.65;;;19.80;88.90;;;;;;5116168;28;20023;-78
2021/09/26 09:45:33;;;;;;;3.88;2.72;;;19.80;88.90;;;;;;5115971;28;20125;-78
2021/09/26 09:48:10;;;;;;;3.47;2.40;;;19.80;89.00;;;;;;5115661;28;20072;-79
2021/09/26 09:50:41;;;;;;;3.33;2.50;;;19.80;89.10;;;;;;5116041;28;20480;-79
2021/09/26 09:53:08;;;;;;;3.15;2.03;;;19.80;89.10;;;;;;5097800;28;20020;-78
2021/09/26 09:55:36;;;;;;;3.95;2.78;;;19.80;89.10;;;;;;5115842;28;20031;-77
2021/09/26 09:58:15;;;;;;;3.55;2.47;;;19.90;89.10;;;;;;5115957;28;20023;-79
2021/09/26 10:00:54;;;;;;;3.33;2.38;;;20.00;89.10;;;;;;5115959;28;20050;-79
2021/09/26 10:03:51;;;;;;;4.43;2.60;;;20.10;89.10;;;;;;5115451;28;20023;-78
2021/09/26 10:06:25;;;;;;;4.13;2.60;;;20.20;88.80;;;;;;5115778;28;20031;-78
2021/09/26 10:08:53;;;;;;;4.82;3.10;;;20.20;88.80;;;;;;5115651;28;20051;-79
2021/09/26 10:11:19;;;;;;;3.33;2.40;;;20.30;88.80;;;;;;5115643;28;20020;-81
2021/09/26 10:13:47;;;;;;;3.08;2.28;;;20.40;88.70;;;;;;5097269;28;20047;-78
2021/09/26 10:16:13;;;;;;;2.45;2.08;;;20.50;89.30;;;;;;5109161;28;20063;-79
2021/09/26 10:18:42;;;;;;;3.70;2.88;;;20.60;88.50;;;;;;5092312;28;20024;-80
2021/09/26 10:21:08;;;;;;;4.20;2.78;;;20.70;88.50;;;;;;5092118;28;20030;-80
2021/09/26 10:23:36;;;;;;;3.38;2.53;;;20.70;88.40;;;;;;5092175;28;20032;-79
2021/09/26 10:26:03;;;;;;;3.33;2.40;;;20.70;88.40;;;;;;5092478;28;20027;-79
2021/09/26 10:28:30;;;;;;;3.17;2.20;;;20.80;88.40;;;;;;5090935;28;20485;-80
2021/09/26 10:30:59;;;;;;;3.50;2.92;;;20.80;88.50;;;;;;5091711;28;20085;-80
2021/09/26 10:33:26;;;;;;;3.72;2.80;;;20.90;88.30;;;;;;5091956;28;20170;-80
2021/09/26 10:35:54;;;;;;;3.83;3.05;;;20.90;88.30;;;;;;5092055;28;20030;-80
2021/09/26 10:38:21;;;;;;;3.55;2.83;;;20.90;88.40;;;;;;5091917;28;20361;-80
2021/09/26 10:40:47;;;;;;;3.50;2.45;;;20.90;88.40;;;;;;5091888;28;20031;-80
2021/09/26 10:43:20;;;;;;;3.75;2.67;;;20.80;88.50;;;;;;5091638;28;20031;-80
2021/09/26 10:45:46;;;;;;;2.42;2.20;;;20.90;88.60;;;;;;5091394;28;20081;-78
2021/09/26 10:48:12;;;;;;;3.95;2.97;;;20.90;88.50;;;;;;5091490;28;20047;-80
2021/09/26 10:50:40;;;;;;;3.03;2.20;;;21.00;88.40;;;;;;5091788;28;20031;-79
2021/09/26 10:53:08;;;;;;;3.50;2.42;;;21.10;88.30;;;;;;5091562;28;20024;-80
2021/09/26 10:55:34;;;;;;;4.40;2.42;;;21.30;88.00;;;;;;5101648;28;20031;-78
2021/09/26 10:58:00;;;;;;;3.50;2.65;;;21.40;87.80;;;;;;5108403;28;20107;-78
2021/09/26 11:00:31;;;;;;;3.67;2.70;;;21.60;87.50;;;;;;5112709;28;20289;-77
2021/09/26 11:03:04;;;;;;;3.17;2.88;;;21.80;87.30;;;;;;5114844;28;20027;-77
2021/09/26 11:05:33;;;;;;;3.40;2.90;;;22.00;87.20;;;;;;5114149;28;20015;-77
2021/09/26 11:08:00;;;;;;;3.17;2.60;;;22.10;87.00;;;;;;5114367;28;20044;-77
2021/09/26 11:10:51;;;;;;;3.97;2.97;;;22.30;86.90;;;;;;5114499;28;20023;-77
2021/09/26 11:13:29;;;;;;;2.92;2.20;;;22.40;86.70;;;;;;5114520;28;20023;-76
2021/09/26 11:15:58;;;;;;;3.35;2.45;;;22.40;86.80;;;;;;5113989;28;20495;-77
2021/09/26 11:18:53;;;;;;;;;;;22.50;86.80;;;;;;5114741;28;20027;-77
2021/09/26 11:21:37;;;;;;;2.33;2.05;;;22.50;86.90;;;;;;5031595;28;19952;-77
2021/09/26 11:24:12;;;;;;;3.22;2.65;;;22.60;86.80;;;;;;5015132;28;20029;-77
2021/09/26 11:26:56;;;;;;;2.75;2.13;;;22.50;86.90;;;;;;5031628;28;20037;-77
2021/09/26 11:29:22;;;;;;;3.13;2.53;;;22.50;87.10;;;;;;5030999;28;20034;-77
2021/09/26 11:31:49;;;;;;;3.55;2.88;;;22.40;87.30;;;;;;5031495;28;20040;-77
2021/09/26 11:34:38;;;;;;;3.13;2.67;;;22.40;87.40;;;;;;5031454;28;20119;-77
2021/09/26 11:37:05;;;;;;;3.42;2.50;;;22.60;87.20;;;;;;5031574;28;20044;-77
2021/09/26 11:39:30;;;;;;;3.95;3.05;;;22.60;87.10;;;;;;5030964;28;20045;-78
2021/09/26 11:41:57;;;;;;;3.70;3.08;;;22.70;86.80;;;;;;5031347;28;20026;-77
2021/09/26 11:44:23;;;;;;;3.92;3.15;;;22.80;86.80;;;;;;5030806;28;20037;-76
2021/09/26 11:46:50;;;;;;;3.47;2.88;;;22.80;86.60;;;;;;5031325;28;20110;-76
2021/09/26 11:49:19;;;;;;;4.07;2.83;;;23.00;86.20;;;;;;5031240;28;20115;-76
2021/09/26 11:51:45;;;;;;;3.10;2.55;;;23.00;86.20;;;;;;5031392;28;20036;-76
2021/09/26 11:54:11;;;;;;;3.72;2.80;;;23.00;86.30;;;;;;5031019;28;20120;-76
2021/09/26 11:56:42;;;;;;;3.42;2.58;;;22.90;86.30;;;;;;5019076;28;20405;-74
2021/09/26 11:59:14;;;;;;;3.53;2.47;;;22.90;86.50;;;;;;5113401;28;20096;-75
2021/09/26 12:01:46;;;;;;;3.40;2.40;;;22.80;86.40;;;;;;5095524;28;20410;-75
2021/09/26 12:04:13;;;;;;;3.28;2.50;;;22.90;86.50;;;;;;5113542;28;20023;-73
2021/09/26 12:06:41;;;;;;;3.10;2.35;;;22.90;86.10;;;;;;5113667;28;20024;-75
2021/09/26 12:09:07;;;;;;;3.42;2.60;;;23.10;86.00;;;;;;5113474;28;20522;-75
2021/09/26 12:11:45;;;;;;;4.10;2.60;;;23.10;85.80;;;;;;5095302;28;20024;-75
2021/09/26 12:14:11;;;;;;;3.08;2.20;;;23.20;85.80;;;;;;5113065;28;20034;-75
2021/09/26 12:16:37;;;;;;;3.22;2.65;;;23.30;85.60;;;;;;5113478;28;20031;-75
2021/09/26 12:19:03;;;;;;;5.50;3.20;;;23.40;85.30;;;;;;5113726;28;20098;-75
2021/09/26 12:21:31;;;;;;;2.95;2.40;;;23.50;85.00;;;;;;5113591;28;20376;-75
2021/09/26 12:23:57;;;;;;;3.03;2.57;;;23.60;85.00;;;;;;5113480;28;20032;-75
2021/09/26 12:26:32;;;;;;;2.72;2.10;;;23.70;84.90;;;;;;5094710;28;20084;-76
2021/09/26 12:29:07;;;;;;;2.35;2.10;;;23.80;85.40;;;;;;5113592;28;20030;-76
2021/09/26 12:31:35;;;;;;;3.42;2.47;;;23.80;84.80;;;;;;5113379;28;20384;-76
2021/09/26 12:34:02;;;;;;;3.13;2.17;;;23.80;84.90;;;;;;5113337;28;20028;-76
2021/09/26 12:36:31;;;;;;;2.42;2.00;;;23.90;85.00;;;;;;5113408;28;20469;-76
2021/09/26 12:38:57;;;;;;;3.38;2.70;;;24.10;84.70;;;;;;5113131;28;20439;-76
2021/09/26 12:41:32;;;;;;;3.38;2.78;;;24.30;84.20;;;;;;5113049;28;20016;-76
2021/09/26 12:44:03;;;;;;;3.55;2.88;;;24.30;83.80;;;;;;5094985;28;20476;-76
2021/09/26 12:46:34;;;;;;;3.13;2.58;;;24.10;84.00;;;;;;5113431;28;20533;-76
2021/09/26 12:49:02;;;;;;;3.05;2.60;;;23.90;84.50;;;;;;5113186;28;20028;-76
2021/09/26 12:51:38;;;;;;;2.83;2.07;;;23.90;84.70;;;;;;5113982;28;20027;-76